createdAt,value
2023-06-28T00:01:17.632Z,58.20
2023-06-28T00:03:45.778Z,58.00
2023-06-28T00:06:12.565Z,57.80
2023-06-28T00:08:39.307Z,57.40
2023-06-28T00:11:06.067Z,57.40
2023-06-28T00:13:32.806Z,57.40
2023-06-28T00:15:59.721Z,57.20
2023-06-28T00:18:26.525Z,57.00
2023-06-28T00:20:54.592Z,57.20
2023-06-28T00:23:21.357Z,57.60
2023-06-28T00:25:48.085Z,57.80
2023-06-28T00:28:14.858Z,58.00
2023-06-28T00:30:41.814Z,58.10
2023-06-28T00:33:08.833Z,58.10
2023-06-28T00:35:35.602Z,58.10
2023-06-28T00:38:03.693Z,58.40
2023-06-28T00:40:30.435Z,58.60
2023-06-28T00:42:57.181Z,59.10
2023-06-28T00:45:23.958Z,59.90
2023-06-28T00:47:51.039Z,60.20
2023-06-28T00:50:19.291Z,61.30
2023-06-28T00:52:46.046Z,61.70
2023-06-28T00:55:14.393Z,61.50
2023-06-28T00:57:41.264Z,63.30
2023-06-28T01:00:08.900Z,64.20
2023-06-28T01:02:35.817Z,64.10
2023-06-28T01:05:02.716Z,65.70
2023-06-28T01:07:30.565Z,64.40
2023-06-28T01:09:58.810Z,64.90
2023-06-28T01:12:27.191Z,64.90
2023-06-28T01:14:54.013Z,65.50
2023-06-28T01:17:20.975Z,67.00
2023-06-28T01:19:47.894Z,67.20
2023-06-28T01:22:15.064Z,68.20
2023-06-28T01:24:43.453Z,69.00
2023-06-28T01:27:11.759Z,69.40
2023-06-28T01:29:40.349Z,69.20
2023-06-28T01:32:08.060Z,69.20
2023-06-28T01:34:34.802Z,69.50
2023-06-28T01:37:03.366Z,69.10
2023-06-28T01:39:31.987Z,69.00
2023-06-28T01:42:01.065Z,69.30
2023-06-28T01:44:28.291Z,69.80
2023-06-28T01:46:55.369Z,69.80
2023-06-28T01:49:22.470Z,70.00
2023-06-28T01:51:49.404Z,70.50
2023-06-28T01:54:16.262Z,70.60
2023-06-28T01:56:43.113Z,70.80
2023-06-28T01:59:11.319Z,70.40
2023-06-28T02:01:38.513Z,70.10
2023-06-28T02:04:05.438Z,70.10
2023-06-28T02:06:32.367Z,69.20
2023-06-28T02:08:59.168Z,69.60
2023-06-28T02:11:25.976Z,69.90
2023-06-28T02:13:52.876Z,70.40
2023-06-28T02:16:21.064Z,70.00
2023-06-28T02:18:47.801Z,70.00
2023-06-28T02:21:14.543Z,70.70
2023-06-28T02:23:41.272Z,71.10
2023-06-28T02:26:08.211Z,71.30
2023-06-28T02:28:34.955Z,70.90
2023-06-28T02:31:01.746Z,71.40
2023-06-28T02:33:29.823Z,71.10
2023-06-28T02:35:56.528Z,70.70
2023-06-28T02:38:23.327Z,72.20
2023-06-28T02:40:50.048Z,71.60
2023-06-28T02:43:16.782Z,72.10
2023-06-28T02:45:43.658Z,71.70
2023-06-28T02:48:10.425Z,71.90
2023-06-28T02:50:38.560Z,71.70
2023-06-28T02:53:05.309Z,72.10
2023-06-28T02:55:32.070Z,71.80
2023-06-28T02:57:58.847Z,71.70
2023-06-28T03:00:25.573Z,71.70
2023-06-28T03:02:52.399Z,71.70
2023-06-28T03:05:19.167Z,71.30
2023-06-28T03:07:47.229Z,71.80
2023-06-28T03:10:13.968Z,71.90
2023-06-28T03:12:40.682Z,71.90
2023-06-28T03:15:08.442Z,72.40
2023-06-28T03:17:35.226Z,72.00
2023-06-28T03:20:02.085Z,71.70
2023-06-28T03:22:28.837Z,72.00
2023-06-28T03:24:56.884Z,71.70
2023-06-28T03:27:23.638Z,72.10
2023-06-28T03:29:50.373Z,72.10
2023-06-28T03:32:17.175Z,72.20
2023-06-28T03:34:44.083Z,71.70
2023-06-28T03:37:10.797Z,71.30
2023-06-28T03:39:37.561Z,71.40
2023-06-28T03:42:06.316Z,71.30
2023-06-28T03:44:33.041Z,71.50
2023-06-28T03:46:59.783Z,71.70
2023-06-28T03:49:26.661Z,71.70
2023-06-28T03:51:53.389Z,71.80
2023-06-28T03:54:21.862Z,71.80
2023-06-28T03:56:49.083Z,71.60
2023-06-28T03:59:17.159Z,71.50
2023-06-28T04:01:46.364Z,72.00
2023-06-28T04:04:14.819Z,71.50
2023-06-28T04:06:41.609Z,71.50
2023-06-28T04:09:08.442Z,71.60
2023-06-28T04:11:35.187Z,71.90
2023-06-28T04:14:01.908Z,72.20
2023-06-28T04:16:29.983Z,71.90
2023-06-28T04:18:56.755Z,72.00
2023-06-28T04:21:23.480Z,72.40
2023-06-28T04:23:50.225Z,72.30
2023-06-28T04:26:16.981Z,72.40
2023-06-28T04:28:43.752Z,73.00
2023-06-28T04:31:10.568Z,73.30
2023-06-28T04:33:38.714Z,73.60
2023-06-28T04:36:05.809Z,73.50
2023-06-28T04:38:32.527Z,73.80
2023-06-28T04:40:59.464Z,73.30
2023-06-28T04:43:26.293Z,73.50
2023-06-28T04:45:53.076Z,73.80
2023-06-28T04:48:19.806Z,73.50
2023-06-28T04:50:48.059Z,73.70
2023-06-28T04:53:14.841Z,73.40
2023-06-28T04:55:41.736Z,73.50
2023-06-28T04:58:08.543Z,74.00
2023-06-28T05:00:35.289Z,74.10
2023-06-28T05:03:02.385Z,73.90
2023-06-28T05:05:29.526Z,74.40
2023-06-28T05:07:57.764Z,74.50
2023-06-28T05:10:25.178Z,75.00
2023-06-28T05:12:52.418Z,75.00
2023-06-28T05:15:19.371Z,74.60
2023-06-28T05:17:46.222Z,75.30
2023-06-28T05:20:15.135Z,75.30
2023-06-28T05:22:44.385Z,75.20
2023-06-28T05:25:12.687Z,75.10
2023-06-28T05:27:39.449Z,74.80
2023-06-28T05:30:07.584Z,75.00
2023-06-28T05:32:34.372Z,75.60
2023-06-28T05:35:01.230Z,75.90
2023-06-28T05:37:28.005Z,75.30
2023-06-28T05:39:54.795Z,75.90
2023-06-28T05:42:22.922Z,75.70
2023-06-28T05:44:49.723Z,75.40
2023-06-28T05:47:16.502Z,74.90
2023-06-28T05:49:44.300Z,75.00
2023-06-28T05:52:13.041Z,74.70
2023-06-28T05:54:40.344Z,75.20
2023-06-28T05:57:07.337Z,75.20
2023-06-28T05:59:35.801Z,75.60
2023-06-28T06:02:02.828Z,75.40
2023-06-28T06:04:29.656Z,75.40
2023-06-28T06:06:56.507Z,75.30
2023-06-28T06:09:23.317Z,75.60
2023-06-28T06:11:50.120Z,76.10
2023-06-28T06:14:16.941Z,75.90
2023-06-28T06:16:45.083Z,76.80
2023-06-28T06:19:13.477Z,76.10
2023-06-28T06:21:41.804Z,76.40
2023-06-28T06:24:08.623Z,76.60
2023-06-28T06:26:35.482Z,76.50
2023-06-28T06:29:02.628Z,76.60
2023-06-28T06:31:29.932Z,76.40
2023-06-28T06:33:58.181Z,76.50
2023-06-28T06:36:25.004Z,76.60
2023-06-28T06:38:51.778Z,76.60
2023-06-28T06:41:18.553Z,77.10
2023-06-28T06:43:45.325Z,77.00
2023-06-28T06:46:12.081Z,77.50
2023-06-28T06:48:38.859Z,77.20
2023-06-28T06:51:07.056Z,77.10
2023-06-28T06:53:33.887Z,77.40
2023-06-28T06:56:00.668Z,77.80
2023-06-28T06:58:27.410Z,77.60
2023-06-28T07:00:54.200Z,77.00
2023-06-28T07:03:20.993Z,77.40
2023-06-28T07:05:47.965Z,77.90
2023-06-28T07:08:16.186Z,78.30
2023-06-28T07:10:42.964Z,77.90
2023-06-28T07:13:10.874Z,77.90
2023-06-28T07:15:37.819Z,78.10
2023-06-28T07:18:05.013Z,78.40
2023-06-28T07:20:31.828Z,78.90
2023-06-28T07:22:58.545Z,78.60
2023-06-28T07:25:26.602Z,78.90
2023-06-28T07:27:53.332Z,78.80
2023-06-28T07:30:20.076Z,78.90
2023-06-28T07:32:46.943Z,79.10
2023-06-28T07:35:13.792Z,79.30
2023-06-28T07:37:40.602Z,79.20
2023-06-28T07:40:08.501Z,79.00
2023-06-28T07:42:36.596Z,79.20
2023-06-28T07:45:03.704Z,79.10
2023-06-28T07:47:30.524Z,79.00
2023-06-28T07:49:57.302Z,79.20
2023-06-28T07:52:24.201Z,79.50
2023-06-28T07:54:50.996Z,79.00
2023-06-28T07:57:17.793Z,79.20
2023-06-28T07:59:45.926Z,79.50
2023-06-28T08:02:12.731Z,79.50
2023-06-28T08:04:40.808Z,79.30
2023-06-28T08:07:07.589Z,79.20
2023-06-28T08:09:34.393Z,79.30
2023-06-28T08:12:01.165Z,79.30
2023-06-28T08:14:27.941Z,79.00
2023-06-28T08:16:56.088Z,79.60
2023-06-28T08:19:22.884Z,78.50
2023-06-28T08:21:49.754Z,78.40
2023-06-28T08:24:16.530Z,78.30
2023-06-28T08:26:43.637Z,78.10
2023-06-28T08:29:10.443Z,78.10
2023-06-28T08:31:37.222Z,78.20
2023-06-28T08:34:05.340Z,77.60
2023-06-28T08:36:33.125Z,77.20
2023-06-28T08:38:59.894Z,77.00
2023-06-28T08:41:27.178Z,76.60
2023-06-28T08:43:55.153Z,76.40
2023-06-28T08:46:23.285Z,76.30
2023-06-28T08:48:51.027Z,75.90
2023-06-28T08:51:19.559Z,75.60
2023-06-28T08:53:49.123Z,75.40
2023-06-28T08:56:16.063Z,76.40
2023-06-28T08:58:42.942Z,75.30
2023-06-28T09:01:09.761Z,75.20
2023-06-28T09:03:41.378Z,75.20
2023-06-28T09:06:08.797Z,74.90
2023-06-28T09:08:36.989Z,74.80
2023-06-28T09:11:04.115Z,74.70
2023-06-28T09:13:31.284Z,74.50
2023-06-28T09:15:58.098Z,74.50
2023-06-28T09:18:24.931Z,74.30
2023-06-28T09:20:53.126Z,74.20
2023-06-28T09:23:27.787Z,74.00
2023-06-28T09:25:56.137Z,73.90
2023-06-28T09:28:24.580Z,73.80
2023-06-28T09:30:54.812Z,73.80
2023-06-28T09:33:22.119Z,73.80
2023-06-28T09:35:53.149Z,73.50
2023-06-28T09:38:20.368Z,73.30
2023-06-28T09:40:55.469Z,73.30
2023-06-28T09:43:22.644Z,73.30
2023-06-28T09:45:49.589Z,73.20
2023-06-28T09:48:16.540Z,73.10
2023-06-28T09:50:44.535Z,73.10
2023-06-28T09:53:12.439Z,73.00
2023-06-28T09:55:40.353Z,72.80
2023-06-28T09:58:10.510Z,72.80
2023-06-28T10:00:38.296Z,72.70
2023-06-28T10:03:07.806Z,72.70
2023-06-28T10:05:36.678Z,72.60
2023-06-28T10:08:04.774Z,73.50
2023-06-28T10:10:34.552Z,72.50
2023-06-28T10:13:02.723Z,72.40
2023-06-28T10:15:37.496Z,72.40
2023-06-28T10:18:05.181Z,72.30
2023-06-28T10:20:32.181Z,72.30
2023-06-28T10:22:59.865Z,72.40
2023-06-28T10:25:27.450Z,72.40
2023-06-28T10:27:55.114Z,72.40
2023-06-28T10:30:22.525Z,71.20
2023-06-28T10:32:52.039Z,71.80
2023-06-28T10:35:19.457Z,72.00
2023-06-28T10:37:49.134Z,72.10
2023-06-28T10:40:17.394Z,72.20
2023-06-28T10:42:44.993Z,72.20
2023-06-28T10:45:11.892Z,72.30
2023-06-28T10:47:55.002Z,72.30
2023-06-28T10:50:23.066Z,72.30
2023-06-28T10:52:52.578Z,72.40
2023-06-28T10:55:21.350Z,72.40
2023-06-28T10:58:04.450Z,72.40
2023-06-28T11:00:46.138Z,72.40
2023-06-28T11:03:14.527Z,72.50
2023-06-28T11:05:52.456Z,72.60
2023-06-28T11:08:19.718Z,72.70
2023-06-28T11:10:48.014Z,72.70
2023-06-28T11:13:16.413Z,72.80
2023-06-28T11:15:44.236Z,72.90
2023-06-28T11:18:16.808Z,72.90
2023-06-28T11:20:51.737Z,72.90
2023-06-28T11:23:36.292Z,72.90
2023-06-28T11:26:04.074Z,72.90
2023-06-28T11:28:32.909Z,72.90
2023-06-28T11:31:13.957Z,72.90
2023-06-28T11:33:43.206Z,72.90
2023-06-28T11:36:11.188Z,72.90
2023-06-28T11:38:38.692Z,72.90
2023-06-28T11:41:06.080Z,72.90
2023-06-28T11:43:32.909Z,72.90
2023-06-28T11:45:59.907Z,73.00
2023-06-28T11:48:27.901Z,72.90
2023-06-28T11:50:59.744Z,73.00
2023-06-28T11:53:27.657Z,73.00
2023-06-28T11:55:54.696Z,72.90
2023-06-28T11:58:31.855Z,73.00
2023-06-28T12:00:58.985Z,73.00
2023-06-28T12:03:37.286Z,73.00
2023-06-28T12:06:07.664Z,73.00
2023-06-28T12:08:35.734Z,73.00
2023-06-28T12:11:08.720Z,72.90
2023-06-28T12:13:35.531Z,72.80
2023-06-28T12:16:12.001Z,72.80
2023-06-28T12:18:58.675Z,72.50
2023-06-28T12:21:28.122Z,71.70
2023-06-28T12:24:10.825Z,71.80
2023-06-28T12:26:37.945Z,71.80
2023-06-28T12:29:06.365Z,71.80
2023-06-28T12:31:40.905Z,71.80
2023-06-28T12:34:07.667Z,71.90
2023-06-28T12:36:35.845Z,71.80
2023-06-28T12:39:02.604Z,71.80
2023-06-28T12:41:29.342Z,71.80
2023-06-28T12:43:56.978Z,71.80
2023-06-28T12:46:23.776Z,71.70
2023-06-28T12:48:52.719Z,71.50
2023-06-28T12:51:19.462Z,71.50
2023-06-28T12:53:47.537Z,71.50
2023-06-28T12:56:14.302Z,71.50
2023-06-28T12:58:41.085Z,71.30
2023-06-28T13:01:07.974Z,72.20
2023-06-28T13:03:34.752Z,71.30
2023-06-28T13:06:02.151Z,71.40
2023-06-28T13:08:28.890Z,71.30
2023-06-28T13:10:57.027Z,71.30
2023-06-28T13:13:23.781Z,71.30
2023-06-28T13:15:50.527Z,71.00
2023-06-28T13:18:17.299Z,71.10
2023-06-28T13:20:44.173Z,71.00
2023-06-28T13:23:10.981Z,70.80
2023-06-28T13:25:37.792Z,70.80
2023-06-28T13:28:06.111Z,70.90
2023-06-28T13:30:34.517Z,70.70
2023-06-28T13:33:01.507Z,70.60
2023-06-28T13:35:28.287Z,70.60
2023-06-28T13:37:55.048Z,70.50
2023-06-28T13:40:21.969Z,70.40
2023-06-28T13:42:48.738Z,70.50
2023-06-28T13:45:16.919Z,70.30
2023-06-28T13:47:43.680Z,69.80
2023-06-28T13:50:10.985Z,69.90
2023-06-28T13:52:37.763Z,69.80
2023-06-28T13:55:05.454Z,69.00
2023-06-28T13:57:32.609Z,68.60
2023-06-28T13:59:59.508Z,68.90
2023-06-28T14:02:27.830Z,69.10
2023-06-28T14:04:54.779Z,69.20
2023-06-28T14:07:21.709Z,69.30
2023-06-28T14:09:48.686Z,69.30
2023-06-28T14:12:15.516Z,69.30
2023-06-28T14:14:42.753Z,69.20
2023-06-28T14:17:10.711Z,69.30
2023-06-28T14:19:38.776Z,69.10
2023-06-28T14:22:05.864Z,69.00
2023-06-28T14:24:32.632Z,68.90
2023-06-28T14:26:59.497Z,68.80
2023-06-28T14:29:26.315Z,68.70
2023-06-28T14:31:53.116Z,68.60
2023-06-28T14:34:19.903Z,68.60
2023-06-28T14:36:48.358Z,68.50
2023-06-28T14:39:15.260Z,68.40
2023-06-28T14:41:42.126Z,68.20
2023-06-28T14:44:08.891Z,68.10
2023-06-28T14:46:35.748Z,68.00
2023-06-28T14:49:03.292Z,67.90
2023-06-28T14:51:30.309Z,67.80
2023-06-28T14:54:00.460Z,67.60
2023-06-28T14:56:28.091Z,67.50
2023-06-28T14:58:55.401Z,67.30
2023-06-28T15:01:22.250Z,67.10
2023-06-28T15:03:49.107Z,67.00
2023-06-28T15:06:16.049Z,66.70
2023-06-28T15:08:42.886Z,66.50
2023-06-28T15:11:11.007Z,66.40
2023-06-28T15:13:37.805Z,66.30
2023-06-28T15:16:05.230Z,66.10
2023-06-28T15:18:32.136Z,66.10
2023-06-28T15:20:58.899Z,66.00
2023-06-28T15:23:25.703Z,66.10
2023-06-28T15:25:52.545Z,65.70
2023-06-28T15:28:20.858Z,65.80
2023-06-28T15:30:47.634Z,65.60
2023-06-28T15:33:14.613Z,66.40
2023-06-28T15:35:42.056Z,65.40
2023-06-28T15:38:09.116Z,65.40
2023-06-28T15:40:36.005Z,65.30
2023-06-28T15:43:07.935Z,65.20
2023-06-28T15:45:36.080Z,65.20
2023-06-28T15:48:02.975Z,62.40
2023-06-28T15:50:29.771Z,63.30
2023-06-28T15:52:56.532Z,63.50
2023-06-28T15:55:24.305Z,63.60
2023-06-28T15:57:51.199Z,63.60
2023-06-28T16:00:18.330Z,63.60
2023-06-28T16:02:46.589Z,63.60
2023-06-28T16:05:13.489Z,63.50
2023-06-28T16:07:40.272Z,63.50
2023-06-28T16:10:07.848Z,63.40
2023-06-28T16:12:34.655Z,63.50
2023-06-28T16:15:01.463Z,63.40
2023-06-28T16:17:28.280Z,63.40
2023-06-28T16:19:56.484Z,62.90
2023-06-28T16:22:23.315Z,62.80
2023-06-28T16:24:50.129Z,62.60
2023-06-28T16:27:19.927Z,62.50
2023-06-28T16:29:46.702Z,62.40
2023-06-28T16:32:13.618Z,62.20
2023-06-28T16:34:41.052Z,62.10
2023-06-28T16:37:09.187Z,62.00
2023-06-28T16:39:36.424Z,62.00
2023-06-28T16:42:03.827Z,61.80
2023-06-28T16:44:30.585Z,61.60
2023-06-28T16:46:57.406Z,61.60
2023-06-28T16:49:24.172Z,61.30
2023-06-28T16:51:50.963Z,61.10
2023-06-28T16:54:19.057Z,61.10
2023-06-28T16:56:45.813Z,61.00
2023-06-28T16:59:12.571Z,60.90
2023-06-28T17:01:39.371Z,60.90
2023-06-28T17:04:06.129Z,60.80
2023-06-28T17:06:32.873Z,60.70
2023-06-28T17:08:59.656Z,60.40
2023-06-28T17:11:27.749Z,60.00
2023-06-28T17:13:54.537Z,59.60
2023-06-28T17:16:21.692Z,59.70
2023-06-28T17:18:48.487Z,59.50
2023-06-28T17:21:15.249Z,59.20
2023-06-28T17:23:42.071Z,59.00
2023-06-28T17:26:08.825Z,58.60
2023-06-28T17:28:36.879Z,58.60
2023-06-28T17:31:03.663Z,58.50
2023-06-28T17:33:30.364Z,58.40
2023-06-28T17:35:57.109Z,58.10
2023-06-28T17:38:23.879Z,57.70
2023-06-28T17:40:50.608Z,56.70
2023-06-28T17:43:17.371Z,56.60
2023-06-28T17:45:45.498Z,57.00
2023-06-28T17:48:12.286Z,57.00
2023-06-28T17:50:39.116Z,57.00
2023-06-28T17:53:05.879Z,56.90
2023-06-28T17:55:32.639Z,56.70
2023-06-28T17:57:59.386Z,56.60
2023-06-28T18:00:26.141Z,56.40
2023-06-28T18:02:54.211Z,56.30
2023-06-28T18:05:20.978Z,56.20
2023-06-28T18:07:47.781Z,56.20
2023-06-28T18:10:14.549Z,56.10
2023-06-28T18:12:41.549Z,56.10
2023-06-28T18:15:09.809Z,56.00
2023-06-28T18:17:36.643Z,55.80
2023-06-28T18:20:05.564Z,55.70
2023-06-28T18:22:32.314Z,55.80
2023-06-28T18:24:59.064Z,55.70
2023-06-28T18:27:25.801Z,55.60
2023-06-28T18:29:52.566Z,55.60
2023-06-28T18:32:19.304Z,55.50
2023-06-28T18:34:46.059Z,55.40
2023-06-28T18:37:14.230Z,55.30
2023-06-28T18:39:41.010Z,55.00
2023-06-28T18:42:08.754Z,55.00
2023-06-28T18:44:35.545Z,54.90
2023-06-28T18:47:02.328Z,54.90
2023-06-28T18:49:29.102Z,54.90
2023-06-28T18:51:55.878Z,55.00
2023-06-28T18:54:23.996Z,55.30
2023-06-28T18:56:50.767Z,55.40
2023-06-28T18:59:17.550Z,55.80
2023-06-28T19:01:44.365Z,55.80
2023-06-28T19:04:11.243Z,55.90
2023-06-28T19:06:38.042Z,56.10
2023-06-28T19:09:04.823Z,56.20
2023-06-28T19:11:32.968Z,56.20
2023-06-28T19:13:59.721Z,56.30
2023-06-28T19:16:26.525Z,56.50
2023-06-28T19:18:53.319Z,56.80
2023-06-28T19:21:20.102Z,56.60
2023-06-28T19:23:46.878Z,56.60
2023-06-28T19:26:13.659Z,57.00
2023-06-28T19:28:41.787Z,57.50
2023-06-28T19:31:08.625Z,58.20
2023-06-28T19:33:35.438Z,58.50
2023-06-28T19:36:02.218Z,58.50
2023-06-28T19:38:29.061Z,58.60
2023-06-28T19:40:55.853Z,58.60
2023-06-28T19:43:22.608Z,58.70
2023-06-28T19:45:50.729Z,58.70
2023-06-28T19:48:17.574Z,58.80
2023-06-28T19:50:44.648Z,58.80
2023-06-28T19:53:11.860Z,58.70
2023-06-28T19:55:38.643Z,58.90
2023-06-28T19:58:05.432Z,59.90
2023-06-28T20:00:32.175Z,59.40
2023-06-28T20:03:00.325Z,59.60
2023-06-28T20:05:27.109Z,59.70
2023-06-28T20:07:55.553Z,59.60
2023-06-28T20:10:23.555Z,59.60
2023-06-28T20:12:50.363Z,59.70
2023-06-28T20:15:17.211Z,59.80
2023-06-28T20:17:44.119Z,59.80
2023-06-28T20:20:13.268Z,59.90
2023-06-28T20:22:40.056Z,59.60
2023-06-28T20:25:07.917Z,59.40
2023-06-28T20:27:34.940Z,59.40
2023-06-28T20:30:02.010Z,59.70
2023-06-28T20:32:28.771Z,59.80
2023-06-28T20:34:55.600Z,60.20
2023-06-28T20:37:24.091Z,60.60
2023-06-28T20:39:50.956Z,60.80
2023-06-28T20:42:17.714Z,61.40
2023-06-28T20:44:44.700Z,61.70
2023-06-28T20:47:11.474Z,61.40
2023-06-28T20:49:38.297Z,62.10
2023-06-28T20:52:05.524Z,62.90
2023-06-28T20:54:33.591Z,62.40
2023-06-28T20:57:00.363Z,62.50
2023-06-28T20:59:27.141Z,62.50
2023-06-28T21:01:54.275Z,62.40
2023-06-28T21:04:21.302Z,62.70
2023-06-28T21:06:48.102Z,62.30
2023-06-28T21:09:14.836Z,61.70
2023-06-28T21:11:42.911Z,61.80
2023-06-28T21:14:09.693Z,61.70
2023-06-28T21:16:36.459Z,62.00
2023-06-28T21:19:03.219Z,62.10
2023-06-28T21:21:30.008Z,61.90
2023-06-28T21:23:56.790Z,61.90
2023-06-28T21:26:23.675Z,62.10
2023-06-28T21:28:51.791Z,62.50
2023-06-28T21:31:21.099Z,62.10
2023-06-28T21:33:48.042Z,61.90
2023-06-28T21:36:14.832Z,61.90
2023-06-28T21:38:41.663Z,62.20
2023-06-28T21:41:08.587Z,61.90
2023-06-28T21:43:36.230Z,62.40
2023-06-28T21:46:04.319Z,62.00
2023-06-28T21:48:31.057Z,62.40
2023-06-28T21:50:57.794Z,62.90
2023-06-28T21:53:24.571Z,63.10
2023-06-28T21:55:51.360Z,62.70
2023-06-28T21:58:18.770Z,62.20
2023-06-28T22:00:45.578Z,62.10
2023-06-28T22:03:13.883Z,62.20
2023-06-28T22:05:40.979Z,62.70
2023-06-28T22:08:07.884Z,62.80
2023-06-28T22:10:34.620Z,62.50
2023-06-28T22:13:01.356Z,62.30
2023-06-28T22:15:28.267Z,62.20
2023-06-28T22:17:55.097Z,62.60
2023-06-28T22:20:23.326Z,63.80
2023-06-28T22:22:50.046Z,62.70
2023-06-28T22:25:16.873Z,62.70
2023-06-28T22:27:43.666Z,63.10
2023-06-28T22:30:11.763Z,62.80
2023-06-28T22:32:42.925Z,62.70
2023-06-28T22:35:10.217Z,62.50
2023-06-28T22:37:38.330Z,62.20
2023-06-28T22:40:06.625Z,62.70
2023-06-28T22:42:33.355Z,63.20
2023-06-28T22:45:00.093Z,63.20
2023-06-28T22:47:26.904Z,63.20
2023-06-28T22:49:53.662Z,63.10
2023-06-28T22:52:20.381Z,63.50
2023-06-28T22:54:48.538Z,63.60
2023-06-28T22:57:15.273Z,63.40
2023-06-28T22:59:42.021Z,63.10
2023-06-28T23:02:08.735Z,63.20
2023-06-28T23:04:35.460Z,63.40
2023-06-28T23:07:02.547Z,63.10
2023-06-28T23:09:29.281Z,63.10
2023-06-28T23:11:57.480Z,62.80
2023-06-28T23:14:24.235Z,63.20
2023-06-28T23:16:50.942Z,63.30
2023-06-28T23:19:18.568Z,63.20
2023-06-28T23:21:45.306Z,63.40
2023-06-28T23:24:12.103Z,63.10
2023-06-28T23:26:39.160Z,63.50
2023-06-28T23:29:07.272Z,63.40
2023-06-28T23:31:34.057Z,64.70
2023-06-28T23:34:00.878Z,63.40
2023-06-28T23:36:27.679Z,63.70
2023-06-28T23:38:54.430Z,63.00
2023-06-28T23:41:21.951Z,63.20
2023-06-28T23:43:48.702Z,63.00
2023-06-28T23:46:17.873Z,63.60
2023-06-28T23:48:44.872Z,63.90
2023-06-28T23:51:12.698Z,63.70
2023-06-28T23:53:40.379Z,63.30
2023-06-28T23:56:07.712Z,63.30
2023-06-28T23:58:35.175Z,64.10
